sensor_id;sensor_type;location;lat;lon;timestamp;pressure;altitude;pressure_sealevel;temperature;humidity
58092;BME280;43896;48.178;11.578;2023-01-28T00:01:42;96133.88;;;0.89;69.38
58092;BME280;43896;48.178;11.578;2023-01-28T00:04:07;96210.16;;;1.43;69.45
58092;BME280;43896;48.178;11.578;2023-01-28T00:06:33;96216.63;;;1.50;69.00
58092;BME280;43896;48.178;11.578;2023-01-28T00:08:58;96171.19;;;1.30;69.03
58092;BME280;43896;48.178;11.578;2023-01-28T00:11:25;96121.03;;;0.73;69.67
58092;BME280;43896;48.178;11.578;2023-01-28T00:13:51;96172.84;;;1.17;70.01
58092;BME280;43896;48.178;11.578;2023-01-28T00:16:17;96184.50;;;0.95;70.22
58092;BME280;43896;48.178;11.578;2023-01-28T00:18:42;96197.28;;;1.12;70.25
58092;BME280;43896;48.178;11.578;2023-01-28T00:21:14;96206.16;;;1.37;69.25
58092;BME280;43896;48.178;11.578;2023-01-28T00:23:40;96204.97;;;1.14;70.01
58092;BME280;43896;48.178;11.578;2023-01-28T00:26:13;96206.56;;;1.31;69.10
58092;BME280;43896;48.178;11.578;2023-01-28T00:28:39;96185.25;;;1.11;69.19
58092;BME280;43896;48.178;11.578;2023-01-28T00:31:10;96191.72;;;1.04;69.69
58092;BME280;43896;48.178;11.578;2023-01-28T00:33:36;96187.66;;;1.15;69.10
58092;BME280;43896;48.178;11.578;2023-01-28T00:36:03;96172.84;;;0.88;69.13
58092;BME280;43896;48.178;11.578;2023-01-28T00:38:31;96153.22;;;0.84;68.96
58092;BME280;43896;48.178;11.578;2023-01-28T00:41:15;96169.13;;;0.92;69.58
58092;BME280;43896;48.178;11.578;2023-01-28T00:43:41;96209.97;;;1.31;68.85
58092;BME280;43896;48.178;11.578;2023-01-28T00:46:08;96207.00;;;1.23;68.51
58092;BME280;43896;48.178;11.578;2023-01-28T00:48:35;96147.78;;;0.88;68.77
58092;BME280;43896;48.178;11.578;2023-01-28T00:51:01;96219.78;;;1.26;68.21
58092;BME280;43896;48.178;11.578;2023-01-28T00:53:26;96206.81;;;1.26;68.98
58092;BME280;43896;48.178;11.578;2023-01-28T00:55:52;96188.97;;;0.77;70.80
58092;BME280;43896;48.178;11.578;2023-01-28T00:58:18;96169.47;;;0.86;69.67
58092;BME280;43896;48.178;11.578;2023-01-28T01:00:44;96171.25;;;1.00;68.97
58092;BME280;43896;48.178;11.578;2023-01-28T01:03:10;96205.34;;;1.22;68.93
58092;BME280;43896;48.178;11.578;2023-01-28T01:05:35;96143.41;;;0.89;68.70
58092;BME280;43896;48.178;11.578;2023-01-28T01:08:00;96215.78;;;1.21;68.74
58092;BME280;43896;48.178;11.578;2023-01-28T01:10:26;96212.81;;;0.98;70.03
58092;BME280;43896;48.178;11.578;2023-01-28T01:12:51;96162.44;;;0.73;69.64
58092;BME280;43896;48.178;11.578;2023-01-28T01:15:17;96156.13;;;0.63;68.75
58092;BME280;43896;48.178;11.578;2023-01-28T01:17:45;96210.09;;;0.25;71.46
58092;BME280;43896;48.178;11.578;2023-01-28T01:20:15;96205.31;;;0.63;71.21
58092;BME280;43896;48.178;11.578;2023-01-28T01:22:40;96217.78;;;0.87;70.13
58092;BME280;43896;48.178;11.578;2023-01-28T01:25:06;96191.88;;;0.87;70.41
58092;BME280;43896;48.178;11.578;2023-01-28T01:27:32;96209.09;;;1.02;69.23
58092;BME280;43896;48.178;11.578;2023-01-28T01:29:58;96211.91;;;1.14;69.41
58092;BME280;43896;48.178;11.578;2023-01-28T01:32:24;96198.00;;;1.00;69.04
58092;BME280;43896;48.178;11.578;2023-01-28T01:34:52;96182.91;;;0.78;69.44
58092;BME280;43896;48.178;11.578;2023-01-28T01:37:18;96132.56;;;0.53;69.39
58092;BME280;43896;48.178;11.578;2023-01-28T01:39:43;96230.56;;;1.04;69.43
58092;BME280;43896;48.178;11.578;2023-01-28T01:42:11;96226.03;;;1.08;69.61
58092;BME280;43896;48.178;11.578;2023-01-28T01:47:26;96241.97;;;0.86;70.31
58092;BME280;43896;48.178;11.578;2023-01-28T01:49:52;96165.63;;;0.48;70.14
58092;BME280;43896;48.178;11.578;2023-01-28T01:52:23;96175.47;;;0.72;69.97
58092;BME280;43896;48.178;11.578;2023-01-28T01:54:51;96183.63;;;0.50;69.99
58092;BME280;43896;48.178;11.578;2023-01-28T01:57:24;96161.47;;;0.60;69.07
58092;BME280;43896;48.178;11.578;2023-01-28T01:59:51;96198.81;;;0.56;69.89
58092;BME280;43896;48.178;11.578;2023-01-28T02:02:16;96152.59;;;0.50;69.98
58092;BME280;43896;48.178;11.578;2023-01-28T02:04:43;96183.28;;;0.56;69.58
58092;BME280;43896;48.178;11.578;2023-01-28T02:07:14;96156.34;;;0.30;71.03
58092;BME280;43896;48.178;11.578;2023-01-28T02:09:40;96144.47;;;0.42;69.66
58092;BME280;43896;48.178;11.578;2023-01-28T02:12:10;96169.00;;;0.65;69.48
58092;BME280;43896;48.178;11.578;2023-01-28T02:14:41;96247.03;;;1.03;69.95
58092;BME280;43896;48.178;11.578;2023-01-28T02:17:08;96169.72;;;0.52;69.21
58092;BME280;43896;48.178;11.578;2023-01-28T02:19:41;96182.28;;;0.28;70.90
58092;BME280;43896;48.178;11.578;2023-01-28T02:30:58;96253.47;;;0.96;70.81
58092;BME280;43896;48.178;11.578;2023-01-28T02:33:32;96159.84;;;0.59;69.95
58092;BME280;43896;48.178;11.578;2023-01-28T02:36:08;96170.22;;;0.73;69.38
58092;BME280;43896;48.178;11.578;2023-01-28T02:38:41;96149.91;;;0.51;70.27
58092;BME280;43896;48.178;11.578;2023-01-28T02:41:13;96184.88;;;0.28;70.76
58092;BME280;43896;48.178;11.578;2023-01-28T02:43:42;96146.41;;;0.22;70.44
58092;BME280;43896;48.178;11.578;2023-01-28T02:49:39;96238.31;;;0.90;69.68
58092;BME280;43896;48.178;11.578;2023-01-28T02:52:36;96258.53;;;0.83;71.13
58092;BME280;43896;48.178;11.578;2023-01-28T02:55:50;96255.50;;;0.91;71.04
58092;BME280;43896;48.178;11.578;2023-01-28T03:06:21;96218.97;;;0.81;69.57
58092;BME280;43896;48.178;11.578;2023-01-28T03:08:56;96263.81;;;1.12;69.64
58092;BME280;43896;48.178;11.578;2023-01-28T03:11:45;96219.06;;;0.94;69.95
58092;BME280;43896;48.178;11.578;2023-01-28T03:14:31;96264.97;;;1.06;69.59
58092;BME280;43896;48.178;11.578;2023-01-28T03:17:41;96243.56;;;0.88;70.17
58092;BME280;43896;48.178;11.578;2023-01-28T03:20:40;96190.53;;;0.65;69.33
58092;BME280;43896;48.178;11.578;2023-01-28T03:23:31;96254.06;;;0.71;71.48
58092;BME280;43896;48.178;11.578;2023-01-28T03:26:20;96267.84;;;1.02;70.49
58092;BME280;43896;48.178;11.578;2023-01-28T03:29:09;96266.22;;;0.85;71.14
58092;BME280;43896;48.178;11.578;2023-01-28T03:31:56;96274.69;;;1.03;70.57
58092;BME280;43896;48.178;11.578;2023-01-28T03:34:41;96257.41;;;1.03;69.70
58092;BME280;43896;48.178;11.578;2023-01-28T03:37:26;96211.69;;;0.58;69.61
58092;BME280;43896;48.178;11.578;2023-01-28T03:39:52;96216.38;;;0.51;70.34
58092;BME280;43896;48.178;11.578;2023-01-28T03:42:21;96219.06;;;0.33;70.99
58092;BME280;43896;48.178;11.578;2023-01-28T03:44:47;96199.41;;;0.15;70.88
58092;BME280;43896;48.178;11.578;2023-01-28T03:47:15;96158.72;;;0.03;70.20
58092;BME280;43896;48.178;11.578;2023-01-28T03:49:43;96226.22;;;0.44;71.04
58092;BME280;43896;48.178;11.578;2023-01-28T03:52:17;96171.00;;;-0.17;71.63
58092;BME280;43896;48.178;11.578;2023-01-28T03:54:44;96251.25;;;0.60;70.51
58092;BME280;43896;48.178;11.578;2023-01-28T03:57:12;96246.50;;;0.52;70.67
58092;BME280;43896;48.178;11.578;2023-01-28T03:59:37;96225.16;;;0.48;70.39
58092;BME280;43896;48.178;11.578;2023-01-28T04:02:03;96239.44;;;0.24;70.74
58092;BME280;43896;48.178;11.578;2023-01-28T04:04:30;96243.94;;;0.36;70.44
58092;BME280;43896;48.178;11.578;2023-01-28T04:06:56;96195.00;;;0.01;70.69
58092;BME280;43896;48.178;11.578;2023-01-28T04:09:22;96211.41;;;0.32;70.21
58092;BME280;43896;48.178;11.578;2023-01-28T04:11:48;96253.34;;;0.69;69.34
58092;BME280;43896;48.178;11.578;2023-01-28T04:14:15;96251.13;;;0.77;69.46
58092;BME280;43896;48.178;11.578;2023-01-28T04:16:40;96265.84;;;0.91;69.16
58092;BME280;43896;48.178;11.578;2023-01-28T04:19:07;96211.28;;;0.49;69.17
58092;BME280;43896;48.178;11.578;2023-01-28T04:21:33;96220.72;;;0.50;68.95
58092;BME280;43896;48.178;11.578;2023-01-28T04:23:58;96238.31;;;0.60;68.38
58092;BME280;43896;48.178;11.578;2023-01-28T04:26:24;96237.72;;;0.54;68.96
58092;BME280;43896;48.178;11.578;2023-01-28T04:28:49;96298.13;;;0.85;69.01
58092;BME280;43896;48.178;11.578;2023-01-28T04:31:15;96222.41;;;0.35;69.45
58092;BME280;43896;48.178;11.578;2023-01-28T04:33:40;96250.72;;;0.23;70.41
58092;BME280;43896;48.178;11.578;2023-01-28T04:36:06;96284.97;;;0.58;69.54
58092;BME280;43896;48.178;11.578;2023-01-28T04:38:31;96309.78;;;0.92;69.03
58092;BME280;43896;48.178;11.578;2023-01-28T04:40:56;96282.47;;;0.72;69.63
58092;BME280;43896;48.178;11.578;2023-01-28T04:43:22;96282.47;;;0.56;69.57
58092;BME280;43896;48.178;11.578;2023-01-28T04:45:47;96295.69;;;0.82;68.77
58092;BME280;43896;48.178;11.578;2023-01-28T04:48:14;96304.78;;;0.89;69.39
58092;BME280;43896;48.178;11.578;2023-01-28T04:50:41;96276.34;;;0.73;69.07
58092;BME280;43896;48.178;11.578;2023-01-28T04:53:06;96253.69;;;0.47;69.80
58092;BME280;43896;48.178;11.578;2023-01-28T04:55:32;96257.19;;;0.46;69.84
58092;BME280;43896;48.178;11.578;2023-01-28T04:57:58;96285.72;;;0.60;69.52
58092;BME280;43896;48.178;11.578;2023-01-28T05:00:23;96301.66;;;0.84;69.17
58092;BME280;43896;48.178;11.578;2023-01-28T05:02:48;96305.94;;;0.69;70.18
58092;BME280;43896;48.178;11.578;2023-01-28T05:05:14;96278.25;;;0.40;70.22
58092;BME280;43896;48.178;11.578;2023-01-28T05:07:39;96233.69;;;0.34;68.81
58092;BME280;43896;48.178;11.578;2023-01-28T05:10:05;96317.94;;;0.86;69.70
58092;BME280;43896;48.178;11.578;2023-01-28T05:12:30;96257.34;;;0.43;69.75
58092;BME280;43896;48.178;11.578;2023-01-28T05:14:58;96241.63;;;0.31;69.61
58092;BME280;43896;48.178;11.578;2023-01-28T05:17:27;96307.00;;;0.02;72.06
58092;BME280;43896;48.178;11.578;2023-01-28T05:19:53;96297.19;;;0.40;70.68
58092;BME280;43896;48.178;11.578;2023-01-28T05:22:18;96274.16;;;0.35;69.81
58092;BME280;43896;48.178;11.578;2023-01-28T05:24:44;96339.63;;;0.84;69.75
58092;BME280;43896;48.178;11.578;2023-01-28T05:27:09;96246.47;;;-0.10;70.53
58092;BME280;43896;48.178;11.578;2023-01-28T05:29:35;96274.50;;;0.29;70.33
58092;BME280;43896;48.178;11.578;2023-01-28T05:32:00;96254.81;;;0.27;69.07
58092;BME280;43896;48.178;11.578;2023-01-28T05:34:25;96325.19;;;0.80;68.65
58092;BME280;43896;48.178;11.578;2023-01-28T05:36:51;96358.50;;;1.02;68.82
58092;BME280;43896;48.178;11.578;2023-01-28T05:39:16;96348.63;;;1.08;68.35
58092;BME280;43896;48.178;11.578;2023-01-28T05:41:41;96235.78;;;0.28;68.24
58092;BME280;43896;48.178;11.578;2023-01-28T05:44:07;96360.22;;;1.01;68.59
58092;BME280;43896;48.178;11.578;2023-01-28T05:46:32;96350.88;;;0.99;68.77
58092;BME280;43896;48.178;11.578;2023-01-28T05:48:57;96365.25;;;1.04;68.78
58092;BME280;43896;48.178;11.578;2023-01-28T05:51:23;96301.56;;;0.70;67.89
58092;BME280;43896;48.178;11.578;2023-01-28T05:53:48;96366.66;;;1.10;68.26
58092;BME280;43896;48.178;11.578;2023-01-28T05:56:14;96310.09;;;0.56;68.77
58092;BME280;43896;48.178;11.578;2023-01-28T05:58:39;96327.13;;;0.60;69.20
58092;BME280;43896;48.178;11.578;2023-01-28T06:01:05;96311.69;;;0.43;69.86
58092;BME280;43896;48.178;11.578;2023-01-28T06:03:30;96322.78;;;0.45;69.77
58092;BME280;43896;48.178;11.578;2023-01-28T06:05:55;96330.41;;;0.64;69.21
58092;BME280;43896;48.178;11.578;2023-01-28T06:08:21;96310.72;;;0.29;70.27
58092;BME280;43896;48.178;11.578;2023-01-28T06:10:46;96303.78;;;0.30;69.96
58092;BME280;43896;48.178;11.578;2023-01-28T06:13:12;96288.66;;;0.22;70.32
58092;BME280;43896;48.178;11.578;2023-01-28T06:15:37;96261.97;;;0.22;69.37
58092;BME280;43896;48.178;11.578;2023-01-28T06:18:03;96297.41;;;0.51;68.91
58092;BME280;43896;48.178;11.578;2023-01-28T06:20:28;96302.19;;;0.59;68.98
58092;BME280;43896;48.178;11.578;2023-01-28T06:22:54;96327.72;;;0.65;69.11
58092;BME280;43896;48.178;11.578;2023-01-28T06:25:20;96322.72;;;0.46;69.17
58092;BME280;43896;48.178;11.578;2023-01-28T06:27:45;96262.22;;;0.17;69.07
58092;BME280;43896;48.178;11.578;2023-01-28T06:30:11;96351.94;;;0.64;69.00
58092;BME280;43896;48.178;11.578;2023-01-28T06:32:37;96330.72;;;0.10;69.88
58092;BME280;43896;48.178;11.578;2023-01-28T06:35:02;96332.06;;;0.49;69.40
58092;BME280;43896;48.178;11.578;2023-01-28T06:37:28;96302.69;;;0.34;69.29
58092;BME280;43896;48.178;11.578;2023-01-28T06:39:53;96368.09;;;0.84;69.07
58092;BME280;43896;48.178;11.578;2023-01-28T06:42:19;96324.31;;;0.33;69.51
58092;BME280;43896;48.178;11.578;2023-01-28T06:44:44;96311.38;;;0.33;69.49
58092;BME280;43896;48.178;11.578;2023-01-28T06:47:09;96349.69;;;0.74;69.42
58092;BME280;43896;48.178;11.578;2023-01-28T06:49:36;96323.78;;;0.58;69.69
58092;BME280;43896;48.178;11.578;2023-01-28T06:52:01;96396.06;;;1.09;68.89
58092;BME280;43896;48.178;11.578;2023-01-28T06:54:27;96392.16;;;1.02;69.23
58092;BME280;43896;48.178;11.578;2023-01-28T06:56:52;96366.09;;;0.89;69.11
58092;BME280;43896;48.178;11.578;2023-01-28T06:59:17;96348.41;;;0.81;68.14
58092;BME280;43896;48.178;11.578;2023-01-28T07:01:43;96351.69;;;0.69;68.54
58092;BME280;43896;48.178;11.578;2023-01-28T07:04:08;96391.59;;;0.97;68.76
58092;BME280;43896;48.178;11.578;2023-01-28T07:06:33;96396.69;;;0.98;69.13
58092;BME280;43896;48.178;11.578;2023-01-28T07:08:59;96387.41;;;0.94;68.88
58092;BME280;43896;48.178;11.578;2023-01-28T07:11:24;96416.81;;;0.93;69.35
58092;BME280;43896;48.178;11.578;2023-01-28T07:13:50;96310.84;;;0.10;70.21
58092;BME280;43896;48.178;11.578;2023-01-28T07:16:16;96386.56;;;-0.04;72.97
58092;BME280;43896;48.178;11.578;2023-01-28T07:18:41;96330.19;;;0.03;71.34
58092;BME280;43896;48.178;11.578;2023-01-28T07:21:07;96383.59;;;0.04;71.78
58092;BME280;43896;48.178;11.578;2023-01-28T07:23:32;96354.91;;;0.09;71.63
58092;BME280;43896;48.178;11.578;2023-01-28T07:26:02;96410.38;;;0.68;70.54
58092;BME280;43896;48.178;11.578;2023-01-28T07:28:28;96403.44;;;0.53;71.24
58092;BME280;43896;48.178;11.578;2023-01-28T07:30:53;96408.88;;;0.80;70.23
58092;BME280;43896;48.178;11.578;2023-01-28T07:33:19;96346.59;;;0.35;70.67
58092;BME280;43896;48.178;11.578;2023-01-28T07:35:45;96385.94;;;0.74;70.01
58092;BME280;43896;48.178;11.578;2023-01-28T07:38:11;96430.66;;;1.08;70.21
58092;BME280;43896;48.178;11.578;2023-01-28T07:40:36;96425.56;;;1.06;69.36
58092;BME280;43896;48.178;11.578;2023-01-28T07:43:02;96419.06;;;0.99;69.08
58092;BME280;43896;48.178;11.578;2023-01-28T07:45:28;96398.69;;;0.77;70.32
58092;BME280;43896;48.178;11.578;2023-01-28T07:48:03;96423.56;;;0.96;69.80
58092;BME280;43896;48.178;11.578;2023-01-28T07:50:31;96430.75;;;0.90;69.77
58092;BME280;43896;48.178;11.578;2023-01-28T07:52:57;96412.47;;;0.78;70.55
58092;BME280;43896;48.178;11.578;2023-01-28T07:55:23;96413.31;;;0.78;69.94
58092;BME280;43896;48.178;11.578;2023-01-28T07:57:53;96460.72;;;0.47;71.15
58092;BME280;43896;48.178;11.578;2023-01-28T08:00:20;96440.91;;;0.46;71.12
58092;BME280;43896;48.178;11.578;2023-01-28T08:02:47;96452.81;;;0.82;70.90
58092;BME280;43896;48.178;11.578;2023-01-28T08:05:17;96459.56;;;0.68;70.98
58092;BME280;43896;48.178;11.578;2023-01-28T08:07:44;96437.50;;;0.45;71.47
58092;BME280;43896;48.178;11.578;2023-01-28T08:10:10;96421.66;;;0.18;71.68
58092;BME280;43896;48.178;11.578;2023-01-28T08:12:37;96369.25;;;-0.02;71.39
58092;BME280;43896;48.178;11.578;2023-01-28T08:15:06;96404.69;;;0.62;70.48
58092;BME280;43896;48.178;11.578;2023-01-28T08:17:32;96409.03;;;0.77;70.09
58092;BME280;43896;48.178;11.578;2023-01-28T08:19:58;96422.91;;;0.92;69.65
58092;BME280;43896;48.178;11.578;2023-01-28T08:22:34;96479.69;;;1.27;69.92
58092;BME280;43896;48.178;11.578;2023-01-28T08:24:59;96434.94;;;1.09;69.48
58092;BME280;43896;48.178;11.578;2023-01-28T08:27:24;96484.72;;;1.30;69.23
58092;BME280;43896;48.178;11.578;2023-01-28T08:29:50;96482.28;;;1.43;69.08
58092;BME280;43896;48.178;11.578;2023-01-28T08:32:43;96484.38;;;1.20;69.36
58092;BME280;43896;48.178;11.578;2023-01-28T08:35:08;96389.50;;;0.71;69.66
58092;BME280;43896;48.178;11.578;2023-01-28T08:37:33;96484.38;;;1.04;70.11
58092;BME280;43896;48.178;11.578;2023-01-28T08:39:59;96376.56;;;0.55;69.66
58092;BME280;43896;48.178;11.578;2023-01-28T08:42:24;96453.72;;;1.12;69.22
58092;BME280;43896;48.178;11.578;2023-01-28T08:44:49;96482.13;;;1.30;69.52
58092;BME280;43896;48.178;11.578;2023-01-28T08:47:15;96419.41;;;0.77;69.71
58092;BME280;43896;48.178;11.578;2023-01-28T08:49:40;96410.28;;;0.70;69.08
58092;BME280;43896;48.178;11.578;2023-01-28T08:52:06;96435.25;;;0.55;70.04
58092;BME280;43896;48.178;11.578;2023-01-28T08:54:31;96448.06;;;0.90;68.97
58092;BME280;43896;48.178;11.578;2023-01-28T08:56:57;96459.00;;;1.11;68.86
58092;BME280;43896;48.178;11.578;2023-01-28T08:59:22;96460.16;;;1.21;68.55
58092;BME280;43896;48.178;11.578;2023-01-28T09:01:47;96421.72;;;1.14;68.02
58092;BME280;43896;48.178;11.578;2023-01-28T09:04:13;96441.94;;;0.91;69.32
58092;BME280;43896;48.178;11.578;2023-01-28T09:06:38;96454.25;;;1.03;69.42
58092;BME280;43896;48.178;11.578;2023-01-28T09:09:04;96495.91;;;1.30;69.91
58092;BME280;43896;48.178;11.578;2023-01-28T09:11:29;96435.50;;;0.66;68.92
58092;BME280;43896;48.178;11.578;2023-01-28T09:14:02;96430.25;;;1.00;69.00
58092;BME280;43896;48.178;11.578;2023-01-28T09:16:27;96413.47;;;1.07;68.11
58092;BME280;43896;48.178;11.578;2023-01-28T09:18:52;96461.81;;;1.38;68.37
58092;BME280;43896;48.178;11.578;2023-01-28T09:21:19;96382.97;;;0.80;68.34
58092;BME280;43896;48.178;11.578;2023-01-28T09:23:44;96393.84;;;0.87;68.20
58092;BME280;43896;48.178;11.578;2023-01-28T09:26:10;96419.66;;;0.72;68.33
58092;BME280;43896;48.178;11.578;2023-01-28T09:28:35;96480.34;;;1.30;68.85
58092;BME280;43896;48.178;11.578;2023-01-28T09:31:07;96449.81;;;1.05;69.00
58092;BME280;43896;48.178;11.578;2023-01-28T09:33:33;96419.19;;;0.32;69.50
58092;BME280;43896;48.178;11.578;2023-01-28T09:36:00;96453.72;;;0.65;69.78
58092;BME280;43896;48.178;11.578;2023-01-28T09:38:31;96409.38;;;0.06;70.48
58092;BME280;43896;48.178;11.578;2023-01-28T09:46:16;96493.72;;;0.59;70.55
58092;BME280;43896;48.178;11.578;2023-01-28T09:48:48;96419.22;;;0.80;69.37
58092;BME280;43896;48.178;11.578;2023-01-28T09:51:35;96390.44;;;0.86;68.34
58092;BME280;43896;48.178;11.578;2023-01-28T09:54:33;96440.63;;;1.46;67.29
58092;BME280;43896;48.178;11.578;2023-01-28T09:57:06;96467.00;;;1.68;66.09
58092;BME280;43896;48.178;11.578;2023-01-28T09:59:35;96449.22;;;1.62;66.39
58092;BME280;43896;48.178;11.578;2023-01-28T10:02:40;96460.13;;;1.98;66.03
58092;BME280;43896;48.178;11.578;2023-01-28T10:13:13;96491.41;;;2.39;64.77
58092;BME280;43896;48.178;11.578;2023-01-28T10:18:11;96446.41;;;1.96;65.06
58092;BME280;43896;48.178;11.578;2023-01-28T10:23:24;96498.84;;;2.01;64.34
58092;BME280;43896;48.178;11.578;2023-01-28T10:25:53;96406.09;;;1.45;65.15
58092;BME280;43896;48.178;11.578;2023-01-28T10:28:24;96492.25;;;2.25;64.73
58092;BME280;43896;48.178;11.578;2023-01-28T10:30:51;96459.69;;;2.05;63.70
58092;BME280;43896;48.178;11.578;2023-01-28T10:33:25;96430.66;;;1.99;64.86
58092;BME280;43896;48.178;11.578;2023-01-28T10:35:55;96464.31;;;2.15;66.58
58092;BME280;43896;48.178;11.578;2023-01-28T10:38:22;96416.50;;;2.19;65.34
58092;BME280;43896;48.178;11.578;2023-01-28T10:40:49;96459.78;;;2.47;64.39
58092;BME280;43896;48.178;11.578;2023-01-28T10:43:20;96467.03;;;2.42;63.03
58092;BME280;43896;48.178;11.578;2023-01-28T10:46:14;96405.00;;;1.94;63.38
58092;BME280;43896;48.178;11.578;2023-01-28T10:48:44;96486.50;;;2.35;62.95
58092;BME280;43896;48.178;11.578;2023-01-28T10:51:10;96485.00;;;2.59;62.41
58092;BME280;43896;48.178;11.578;2023-01-28T10:53:40;96486.97;;;2.27;63.67
58092;BME280;43896;48.178;11.578;2023-01-28T10:56:12;96494.78;;;2.11;63.86
58092;BME280;43896;48.178;11.578;2023-01-28T10:58:53;96387.75;;;1.79;67.63
58092;BME280;43896;48.178;11.578;2023-01-28T11:01:22;96392.63;;;2.84;61.40
58092;BME280;43896;48.178;11.578;2023-01-28T11:03:53;96423.94;;;3.50;58.66
58092;BME280;43896;48.178;11.578;2023-01-28T11:06:28;96486.66;;;3.85;59.79
58092;BME280;43896;48.178;11.578;2023-01-28T11:08:53;96465.66;;;4.01;58.21
58092;BME280;43896;48.178;11.578;2023-01-28T11:11:26;96483.50;;;4.20;55.38
58092;BME280;43896;48.178;11.578;2023-01-28T11:13:53;96441.34;;;3.62;57.61
58092;BME280;43896;48.178;11.578;2023-01-28T11:16:20;96468.06;;;4.17;56.64
58092;BME280;43896;48.178;11.578;2023-01-28T11:18:51;96480.13;;;4.05;56.33
58092;BME280;43896;48.178;11.578;2023-01-28T11:21:25;96395.25;;;3.24;56.62
58092;BME280;43896;48.178;11.578;2023-01-28T11:24:02;96378.22;;;2.93;58.40
58092;BME280;43896;48.178;11.578;2023-01-28T11:26:31;96400.63;;;2.67;60.24
58092;BME280;43896;48.178;11.578;2023-01-28T11:28:58;96455.41;;;2.91;60.78
58092;BME280;43896;48.178;11.578;2023-01-28T11:31:24;96478.25;;;3.13;60.04
58092;BME280;43896;48.178;11.578;2023-01-28T11:34:16;96469.91;;;3.22;60.17
58092;BME280;43896;48.178;11.578;2023-01-28T11:36:50;96485.06;;;3.43;59.22
58092;BME280;43896;48.178;11.578;2023-01-28T11:39:24;96449.44;;;2.61;61.37
58092;BME280;43896;48.178;11.578;2023-01-28T11:41:53;96446.31;;;2.98;60.17
58092;BME280;43896;48.178;11.578;2023-01-28T11:44:23;96474.06;;;3.25;59.74
58092;BME280;43896;48.178;11.578;2023-01-28T11:47:25;96482.81;;;3.09;60.39
58092;BME280;43896;48.178;11.578;2023-01-28T11:50:09;96474.44;;;2.91;59.96
58092;BME280;43896;48.178;11.578;2023-01-28T11:52:59;96485.25;;;3.12;59.71
58092;BME280;43896;48.178;11.578;2023-01-28T11:56:12;96434.09;;;3.13;58.60
58092;BME280;43896;48.178;11.578;2023-01-28T12:01:51;96451.22;;;3.03;59.36
58092;BME280;43896;48.178;11.578;2023-01-28T12:04:48;96446.75;;;2.90;60.30
58092;BME280;43896;48.178;11.578;2023-01-28T12:26:04;96485.59;;;2.36;63.94
58092;BME280;43896;48.178;11.578;2023-01-28T12:31:42;96455.25;;;2.51;63.95
58092;BME280;43896;48.178;11.578;2023-01-28T12:34:27;96485.94;;;2.44;64.33
58092;BME280;43896;48.178;11.578;2023-01-28T12:37:15;96374.50;;;1.83;63.84
58092;BME280;43896;48.178;11.578;2023-01-28T12:42:50;96391.38;;;1.91;64.50
58092;BME280;43896;48.178;11.578;2023-01-28T12:45:22;96435.31;;;2.37;62.88
58092;BME280;43896;48.178;11.578;2023-01-28T12:48:08;96483.06;;;2.49;63.82
58092;BME280;43896;48.178;11.578;2023-01-28T12:50:40;96402.22;;;1.97;64.24
58092;BME280;43896;48.178;11.578;2023-01-28T12:53:27;96488.63;;;2.57;63.89
58092;BME280;43896;48.178;11.578;2023-01-28T12:56:13;96469.25;;;2.77;65.08
58092;BME280;43896;48.178;11.578;2023-01-28T13:01:51;96476.94;;;2.78;62.86
58092;BME280;43896;48.178;11.578;2023-01-28T13:07:46;96473.69;;;2.32;63.06
58092;BME280;43896;48.178;11.578;2023-01-28T13:12:55;96473.34;;;2.67;61.99
58092;BME280;43896;48.178;11.578;2023-01-28T13:15:22;96455.53;;;2.60;61.45
58092;BME280;43896;48.178;11.578;2023-01-28T13:18:02;96457.75;;;2.67;61.12
58092;BME280;43896;48.178;11.578;2023-01-28T13:20:45;96476.50;;;2.72;61.81
58092;BME280;43896;48.178;11.578;2023-01-28T13:23:27;96440.59;;;2.35;61.89
58092;BME280;43896;48.178;11.578;2023-01-28T13:28:50;96468.88;;;2.69;61.24
58092;BME280;43896;48.178;11.578;2023-01-28T13:31:19;96473.59;;;2.76;61.73
58092;BME280;43896;48.178;11.578;2023-01-28T13:36:24;96432.47;;;2.27;61.30
58092;BME280;43896;48.178;11.578;2023-01-28T13:41:46;96478.53;;;2.52;63.24
58092;BME280;43896;48.178;11.578;2023-01-28T13:44:33;96474.16;;;2.67;62.18
58092;BME280;43896;48.178;11.578;2023-01-28T13:47:12;96508.00;;;2.80;62.47
58092;BME280;43896;48.178;11.578;2023-01-28T13:49:42;96520.72;;;2.56;63.55
58092;BME280;43896;48.178;11.578;2023-01-28T13:54:40;96519.25;;;2.37;63.97
58092;BME280;43896;48.178;11.578;2023-01-28T14:03:25;96512.00;;;2.71;62.87
58092;BME280;43896;48.178;11.578;2023-01-28T14:06:17;96493.75;;;2.58;62.92
58092;BME280;43896;48.178;11.578;2023-01-28T14:08:58;96515.59;;;2.54;63.65
58092;BME280;43896;48.178;11.578;2023-01-28T14:17:02;96531.66;;;2.61;64.17
58092;BME280;43896;48.178;11.578;2023-01-28T14:19:33;96538.53;;;2.62;63.15
58092;BME280;43896;48.178;11.578;2023-01-28T14:22:05;96531.44;;;2.21;65.12
58092;BME280;43896;48.178;11.578;2023-01-28T14:24:32;96425.25;;;1.73;64.65
58092;BME280;43896;48.178;11.578;2023-01-28T14:30:03;96537.97;;;2.71;63.62
58092;BME280;43896;48.178;11.578;2023-01-28T14:32:33;96540.47;;;2.73;63.79
58092;BME280;43896;48.178;11.578;2023-01-28T14:35:07;96553.13;;;2.79;63.35
58092;BME280;43896;48.178;11.578;2023-01-28T14:37:34;96528.25;;;2.60;63.79
58092;BME280;43896;48.178;11.578;2023-01-28T14:40:02;96552.38;;;2.77;63.45
58092;BME280;43896;48.178;11.578;2023-01-28T14:42:34;96548.09;;;2.76;63.62
58092;BME280;43896;48.178;11.578;2023-01-28T14:45:13;96475.72;;;2.12;63.85
58092;BME280;43896;48.178;11.578;2023-01-28T14:50:36;96546.25;;;2.63;64.21
58092;BME280;43896;48.178;11.578;2023-01-28T14:53:35;96459.28;;;1.97;63.68
58092;BME280;43896;48.178;11.578;2023-01-28T14:58:36;96506.25;;;2.52;62.61
58092;BME280;43896;48.178;11.578;2023-01-28T15:01:03;96564.16;;;2.83;63.11
58092;BME280;43896;48.178;11.578;2023-01-28T15:03:29;96449.13;;;2.09;62.28
58092;BME280;43896;48.178;11.578;2023-01-28T15:06:05;96464.59;;;2.10;62.31